Pagina principale
METAR-TAF:

METAR-TAF

Aeroporti :

Skelton Airport

Eureka, Alaska, Stati Uniti

latitudine: 61-56N, longitudine: 147-10W, altezza: 1002 m

Osservazione

Il bollettino è stato emesso 1 ora e 15 minuti fa, alle 13:56 UTC
Vento 10 kt da ovest/sud-ovest
Temperature 7°C
Umidità 81%
Pressione 1024 hPa
Visibilità: 16.1 km
Cielo sereno

METAR: PAZK 191356Z AUTO 24010KT 10SM CLR 07/04 A3024 RMK AO2 SLP260 T00670044

Ora: 07:11 (15:11 UTC)


TAF: mancante

Osservazioni e previsioni meteorologiche di più di 4000 aeroporti (messaggi METAR e TAF).

Le stazioni disponibili sono rappresentate dai dischi gialli e rossi sulla carta.

Puntare il mouse per vedere il nome della stazione.

Clicca sopra per visualizzare le osservazioni e previsioni meteorologiche.

Per cambiare la mappa : fare clic sui pulsanti verdi con una croce nera per ingrandire, il pulsante verde con un trattino per diminuire, o sulla freccia verde per le mappe adiacenti.


METAR-TAF: